createdAt,value
2018-09-25T00:00:52.561Z,8.41
2018-09-25T00:01:53.170Z,8.37
2018-09-25T00:02:52.811Z,8.41
2018-09-25T00:03:53.063Z,8.38
2018-09-25T00:04:52.798Z,8.49
2018-09-25T00:05:52.533Z,8.51
2018-09-25T00:06:52.840Z,8.52
2018-09-25T00:07:53.066Z,8.52
2018-09-25T00:08:53.032Z,8.58
2018-09-25T00:09:52.774Z,8.52
2018-09-25T00:10:52.785Z,8.58
2018-09-25T00:11:52.754Z,8.55
2018-09-25T00:12:52.500Z,8.52
2018-09-25T00:13:52.738Z,8.46
2018-09-25T00:14:52.741Z,8.48
2018-09-25T00:15:52.736Z,8.48
2018-09-25T00:16:52.793Z,8.49
2018-09-25T00:17:52.725Z,8.53
2018-09-25T00:18:52.968Z,8.52
2018-09-25T00:19:52.975Z,8.45
2018-09-25T00:20:52.704Z,8.38
2018-09-25T00:21:52.694Z,8.41
2018-09-25T00:22:52.947Z,8.36
2018-09-25T00:23:52.945Z,8.27
2018-09-25T00:24:52.943Z,8.33
2018-09-25T00:25:52.946Z,8.26
2018-09-25T00:26:52.678Z,8.24
2018-09-25T00:27:52.669Z,8.26
2018-09-25T00:28:52.946Z,8.16
2018-09-25T00:29:52.908Z,8.16
2018-09-25T00:30:52.941Z,8.31
2018-09-25T00:31:52.690Z,8.28
2018-09-25T00:32:52.893Z,8.18
2018-09-25T00:33:52.879Z,8.19
2018-09-25T00:34:52.881Z,8.2
2018-09-25T00:35:52.887Z,8.2
2018-09-25T00:36:52.685Z,8.18
2018-09-25T00:37:52.850Z,8.13
2018-09-25T00:38:52.850Z,8.34
2018-09-25T00:39:52.840Z,8.2
2018-09-25T00:40:52.578Z,8.3
2018-09-25T00:41:52.841Z,8.19
2018-09-25T00:42:52.821Z,8.26
2018-09-25T00:43:52.582Z,8.18
2018-09-25T00:44:52.823Z,8.18
2018-09-25T00:45:52.553Z,8.19
2018-09-25T00:46:52.681Z,8.19
2018-09-25T00:47:52.549Z,8.12
2018-09-25T00:48:52.796Z,8.18
2018-09-25T00:49:52.526Z,8.19
2018-09-25T00:50:52.783Z,8.15
2018-09-25T00:51:52.526Z,8.13
2018-09-25T00:52:52.773Z,8.13
2018-09-25T00:53:52.511Z,8.13
2018-09-25T00:54:52.500Z,8.19
2018-09-25T00:55:52.486Z,8.15
2018-09-25T00:56:52.552Z,8.18
2018-09-25T00:57:52.486Z,8.13
2018-09-25T00:58:52.720Z,8.2
2018-09-25T00:59:52.723Z,8.15
2018-09-25T01:00:52.463Z,8.18
2018-09-25T01:01:52.823Z,8.16
2018-09-25T01:02:52.526Z,8.05
2018-09-25T01:03:52.451Z,8.1
2018-09-25T01:04:52.440Z,8.06
2018-09-25T01:05:52.424Z,8.01
2018-09-25T01:06:52.489Z,8.01
2018-09-25T01:07:52.516Z,8.01
2018-09-25T01:08:52.667Z,7.98
2018-09-25T01:09:52.418Z,8.1
2018-09-25T01:10:52.418Z,8.01
2018-09-25T01:11:52.406Z,7.98
2018-09-25T01:12:52.141Z,8.01
2018-09-25T01:13:52.643Z,8.08
2018-09-25T01:14:52.376Z,8.13
2018-09-25T01:15:52.622Z,8.05
2018-09-25T01:16:52.366Z,8.18
2018-09-25T01:17:52.628Z,8.2
2018-09-25T01:18:52.641Z,8.15
2018-09-25T01:19:52.335Z,8.16
2018-09-25T01:20:52.338Z,8.13
2018-09-25T01:21:52.389Z,8.03
2018-09-25T01:22:52.669Z,7.94
2018-09-25T01:23:52.573Z,7.95
2018-09-25T01:24:52.314Z,7.88
2018-09-25T01:25:52.309Z,7.93
2018-09-25T01:26:52.565Z,7.95
2018-09-25T01:27:52.036Z,7.88
2018-09-25T01:28:52.035Z,7.85
2018-09-25T01:29:52.297Z,7.77
2018-09-25T01:30:52.535Z,7.83
2018-09-25T01:31:52.266Z,7.8
2018-09-25T01:32:52.539Z,7.8
2018-09-25T01:33:52.509Z,7.82
2018-09-25T01:34:52.256Z,7.72
2018-09-25T01:35:52.243Z,7.73
2018-09-25T01:36:51.982Z,7.8
2018-09-25T01:37:52.488Z,7.75
2018-09-25T01:38:51.970Z,7.7
2018-09-25T01:39:52.484Z,7.79
2018-09-25T01:40:52.465Z,7.72
2018-09-25T01:41:52.453Z,7.7
2018-09-25T01:42:52.451Z,7.76
2018-09-25T01:43:52.203Z,7.75
2018-09-25T01:44:52.448Z,7.75
2018-09-25T01:45:52.177Z,7.61
2018-09-25T01:46:51.916Z,7.57
2018-09-25T01:47:52.247Z,7.63
2018-09-25T01:48:52.416Z,7.67
2018-09-25T01:49:52.159Z,7.7
2018-09-25T01:50:52.501Z,7.75
2018-09-25T01:51:52.144Z,7.69
2018-09-25T01:52:52.478Z,7.73
2018-09-25T01:53:52.386Z,7.69
2018-09-25T01:54:52.126Z,7.67
2018-09-25T01:55:52.391Z,7.69
2018-09-25T01:56:52.112Z,7.73
2018-09-25T01:57:52.211Z,7.69
2018-09-25T01:58:52.356Z,7.75
2018-09-25T01:59:52.359Z,7.75
2018-09-25T02:00:52.098Z,7.75
2018-09-25T02:01:52.085Z,7.8
2018-09-25T02:02:52.483Z,7.75
2018-09-25T02:03:52.367Z,7.67
2018-09-25T02:04:52.076Z,7.69
2018-09-25T02:05:51.841Z,7.6
2018-09-25T02:06:52.307Z,7.57
2018-09-25T02:07:52.112Z,7.57
2018-09-25T02:08:52.365Z,7.56
2018-09-25T02:09:52.029Z,7.57
2018-09-25T02:10:52.274Z,7.63
2018-09-25T02:11:52.273Z,7.58
2018-09-25T02:12:52.268Z,7.54
2018-09-25T02:13:52.267Z,7.57
2018-09-25T02:14:52.268Z,7.57
2018-09-25T02:15:51.999Z,7.45
2018-09-25T02:16:51.994Z,7.5
2018-09-25T02:17:52.129Z,7.56
2018-09-25T02:18:51.720Z,7.45
2018-09-25T02:19:51.970Z,7.51
2018-09-25T02:20:52.225Z,7.51
2018-09-25T02:21:52.208Z,7.51
2018-09-25T02:22:52.052Z,7.58
2018-09-25T02:23:52.206Z,7.48
2018-09-25T02:24:52.196Z,7.58
2018-09-25T02:25:52.201Z,7.54
2018-09-25T02:26:51.941Z,7.63
2018-09-25T02:27:51.963Z,7.61
2018-09-25T02:28:52.160Z,7.58
2018-09-25T02:29:52.191Z,7.6
2018-09-25T02:30:52.188Z,7.6
2018-09-25T02:31:52.155Z,7.57
2018-09-25T02:32:51.950Z,7.53
2018-09-25T02:33:51.873Z,7.58
2018-09-25T02:34:52.123Z,7.72
2018-09-25T02:35:51.873Z,7.6
2018-09-25T02:36:52.104Z,7.66
2018-09-25T02:37:51.967Z,7.66
2018-09-25T02:38:52.116Z,7.54
2018-09-25T02:39:51.843Z,7.53
2018-09-25T02:40:52.104Z,7.51
2018-09-25T02:41:52.131Z,7.53
2018-09-25T02:42:52.124Z,7.58
2018-09-25T02:43:52.080Z,7.53
2018-09-25T02:44:51.799Z,7.54
2018-09-25T02:45:51.799Z,7.5
2018-09-25T02:46:51.807Z,7.45
2018-09-25T02:47:52.196Z,7.53
2018-09-25T02:48:52.042Z,7.45
2018-09-25T02:49:52.027Z,7.45
2018-09-25T02:50:52.017Z,7.39
2018-09-25T02:51:51.759Z,7.43
2018-09-25T02:52:51.752Z,7.36
2018-09-25T02:53:51.758Z,7.39
2018-09-25T02:54:51.988Z,7.4
2018-09-25T02:55:51.775Z,7.38
2018-09-25T02:56:51.990Z,7.38
2018-09-25T02:57:51.769Z,7.38
2018-09-25T02:58:51.708Z,7.39
2018-09-25T02:59:51.704Z,7.35
2018-09-25T03:00:51.955Z,7.5
2018-09-25T03:01:51.745Z,7.45
2018-09-25T03:02:51.428Z,7.38
2018-09-25T03:03:51.682Z,7.45
2018-09-25T03:04:51.931Z,7.4
2018-09-25T03:05:51.919Z,7.4
2018-09-25T03:06:51.924Z,7.47
2018-09-25T03:07:51.649Z,7.5
2018-09-25T03:08:51.916Z,7.51
2018-09-25T03:09:51.633Z,7.56
2018-09-25T03:10:51.902Z,7.58
2018-09-25T03:11:51.886Z,7.61
2018-09-25T03:12:51.882Z,7.61
2018-09-25T03:13:51.620Z,7.6
2018-09-25T03:14:51.855Z,7.5
2018-09-25T03:15:51.605Z,7.53
2018-09-25T03:16:51.589Z,7.47
2018-09-25T03:17:51.591Z,7.47
2018-09-25T03:18:51.844Z,7.54
2018-09-25T03:19:51.818Z,7.63
2018-09-25T03:20:51.567Z,7.67
2018-09-25T03:21:51.818Z,7.57
2018-09-25T03:22:51.626Z,7.58
2018-09-25T03:23:51.698Z,7.61
2018-09-25T03:24:51.802Z,7.57
2018-09-25T03:25:51.781Z,7.56
2018-09-25T03:26:51.513Z,7.56
2018-09-25T03:27:51.663Z,7.5
2018-09-25T03:28:51.761Z,7.42
2018-09-25T03:29:51.773Z,7.51
2018-09-25T03:30:51.750Z,7.5
2018-09-25T03:31:51.546Z,7.57
2018-09-25T03:32:51.751Z,7.57
2018-09-25T03:33:51.734Z,7.73
2018-09-25T03:34:51.521Z,7.76
2018-09-25T03:35:51.720Z,7.83
2018-09-25T03:36:51.722Z,7.8
2018-09-25T03:37:51.444Z,7.77
2018-09-25T03:38:51.439Z,7.67
2018-09-25T03:39:51.693Z,7.63
2018-09-25T03:40:51.429Z,7.56
2018-09-25T03:41:51.669Z,7.48
2018-09-25T03:42:51.673Z,7.5
2018-09-25T03:43:51.404Z,7.51
2018-09-25T03:44:51.652Z,7.53
2018-09-25T03:45:51.414Z,7.5
2018-09-25T03:46:51.669Z,7.56
2018-09-25T03:47:51.413Z,7.61
2018-09-25T03:48:51.630Z,7.56
2018-09-25T03:49:51.355Z,7.57
2018-09-25T03:50:51.374Z,7.47
2018-09-25T03:51:51.367Z,7.4
2018-09-25T03:52:51.329Z,7.39
2018-09-25T03:53:51.603Z,7.33
2018-09-25T03:54:51.138Z,7.28
2018-09-25T03:55:51.565Z,7.24
2018-09-25T03:56:51.584Z,7.33
2018-09-25T03:57:51.304Z,7.39
2018-09-25T03:58:51.544Z,7.4
2018-09-25T03:59:51.614Z,7.39
2018-09-25T04:00:51.290Z,7.4
2018-09-25T04:01:51.525Z,7.43
2018-09-25T04:02:51.520Z,7.48
2018-09-25T04:03:51.259Z,7.48
2018-09-25T04:04:51.249Z,7.51
2018-09-25T04:05:51.512Z,7.53
2018-09-25T04:06:51.492Z,7.43
2018-09-25T04:07:51.491Z,7.48
2018-09-25T04:08:51.478Z,7.45
2018-09-25T04:09:51.239Z,7.51
2018-09-25T04:10:51.467Z,7.4
2018-09-25T04:11:51.205Z,7.43
2018-09-25T04:12:51.199Z,7.43
2018-09-25T04:13:52.289Z,7.45
2018-09-25T04:14:51.434Z,7.5
2018-09-25T04:15:51.432Z,7.42
2018-09-25T04:16:50.960Z,7.38
2018-09-25T04:17:51.424Z,7.33
2018-09-25T04:18:51.506Z,7.36
2018-09-25T04:19:51.403Z,7.38
2018-09-25T04:20:51.136Z,7.35
2018-09-25T04:21:51.124Z,7.32
2018-09-25T04:22:51.378Z,7.23
2018-09-25T04:23:51.172Z,7.31
2018-09-25T04:24:51.113Z,7.28
2018-09-25T04:25:51.466Z,7.15
2018-09-25T04:26:51.356Z,7.1
2018-09-25T04:27:51.412Z,7.1
2018-09-25T04:28:52.182Z,7.07
2018-09-25T04:29:51.375Z,7
2018-09-25T04:30:51.333Z,7
2018-09-25T04:31:51.080Z,7
2018-09-25T04:32:51.325Z,6.92
2018-09-25T04:33:51.458Z,6.89
2018-09-25T04:34:51.298Z,6.89
2018-09-25T04:35:51.290Z,6.89
2018-09-25T04:36:51.024Z,6.93
2018-09-25T04:37:51.296Z,6.95
2018-09-25T04:38:51.322Z,6.95
2018-09-25T04:39:51.275Z,6.82
2018-09-25T04:40:51.258Z,6.85
2018-09-25T04:41:51.003Z,6.87
2018-09-25T04:42:51.247Z,6.88
2018-09-25T04:43:51.289Z,6.92
2018-09-25T04:44:51.227Z,6.87
2018-09-25T04:45:50.964Z,6.99
2018-09-25T04:46:51.237Z,6.89
2018-09-25T04:47:51.424Z,6.89
2018-09-25T04:48:52.158Z,6.77
2018-09-25T04:49:51.216Z,6.88
2018-09-25T04:50:50.932Z,6.81
2018-09-25T04:51:50.946Z,6.77
2018-09-25T04:52:50.909Z,6.72
2018-09-25T04:53:50.913Z,6.85
2018-09-25T04:54:51.191Z,6.88
2018-09-25T04:55:51.164Z,6.72
2018-09-25T04:56:51.203Z,6.67
2018-09-25T04:57:51.148Z,6.74
2018-09-25T04:58:51.133Z,6.77
2018-09-25T04:59:51.139Z,6.67
2018-09-25T05:00:51.135Z,6.69
2018-09-25T05:01:50.862Z,6.67
2018-09-25T05:02:50.865Z,6.7
2018-09-25T05:03:51.158Z,6.77
2018-09-25T05:04:50.827Z,6.7
2018-09-25T05:05:51.095Z,6.69
2018-09-25T05:06:51.251Z,6.67
2018-09-25T05:07:50.805Z,6.66
2018-09-25T05:08:51.096Z,6.7
2018-09-25T05:09:51.063Z,6.64
2018-09-25T05:10:50.788Z,6.67
2018-09-25T05:11:51.070Z,6.67
2018-09-25T05:12:50.847Z,6.67
2018-09-25T05:13:51.026Z,6.77
2018-09-25T05:14:50.774Z,6.78
2018-09-25T05:15:51.020Z,6.81
2018-09-25T05:16:50.749Z,6.77
2018-09-25T05:17:51.002Z,6.78
2018-09-25T05:18:50.475Z,6.77
2018-09-25T05:19:51.003Z,6.72
2018-09-25T05:20:50.985Z,6.7
2018-09-25T05:21:50.967Z,6.84
2018-09-25T05:22:50.718Z,6.82
2018-09-25T05:23:50.696Z,6.84
2018-09-25T05:24:51.156Z,6.81
2018-09-25T05:25:50.939Z,6.77
2018-09-25T05:26:50.946Z,6.89
2018-09-25T05:27:50.673Z,6.81
2018-09-25T05:28:50.926Z,6.82
2018-09-25T05:29:50.657Z,6.89
2018-09-25T05:30:50.901Z,6.78
2018-09-25T05:31:50.898Z,6.93
2018-09-25T05:32:50.891Z,6.82
2018-09-25T05:33:50.893Z,6.84
2018-09-25T05:34:50.883Z,6.87
2018-09-25T05:35:50.616Z,6.87
2018-09-25T05:36:50.599Z,6.89
2018-09-25T05:37:50.850Z,6.89
2018-09-25T05:38:50.592Z,6.97
2018-09-25T05:39:50.581Z,7.05
2018-09-25T05:40:50.974Z,7.1
2018-09-25T05:41:50.840Z,7.15
2018-09-25T05:42:50.571Z,7.06
2018-09-25T05:43:50.818Z,7.1
2018-09-25T05:44:50.552Z,7.18
2018-09-25T05:45:50.549Z,7.15
2018-09-25T05:46:50.795Z,7.14
2018-09-25T05:47:50.797Z,7.15
2018-09-25T05:48:51.379Z,7.2
2018-09-25T05:49:50.779Z,7.25
2018-09-25T05:50:50.268Z,7.28
2018-09-25T05:51:50.760Z,7.36
2018-09-25T05:52:50.758Z,7.38
2018-09-25T05:53:50.520Z,7.42
2018-09-25T05:54:50.802Z,7.39
2018-09-25T05:55:50.754Z,7.4
2018-09-25T05:56:50.733Z,7.45
2018-09-25T05:57:50.479Z,7.51
2018-09-25T05:58:50.732Z,7.51
2018-09-25T05:59:50.451Z,7.56
2018-09-25T06:00:50.466Z,7.5
2018-09-25T06:01:50.708Z,7.54
2018-09-25T06:02:50.694Z,7.58
2018-09-25T06:03:50.448Z,7.7
2018-09-25T06:04:50.230Z,7.7
2018-09-25T06:05:50.420Z,7.79
2018-09-25T06:06:50.702Z,7.8
2018-09-25T06:07:50.396Z,7.8
2018-09-25T06:08:50.147Z,7.94
2018-09-25T06:09:50.984Z,7.94
2018-09-25T06:10:50.128Z,7.88
2018-09-25T06:11:50.120Z,7.93
2018-09-25T06:12:50.380Z,7.95
2018-09-25T06:13:50.610Z,7.93
2018-09-25T06:14:50.363Z,8.01
2018-09-25T06:15:50.121Z,7.94
2018-09-25T06:16:50.596Z,8
2018-09-25T06:17:50.331Z,8.05
2018-09-25T06:18:50.911Z,8.05
2018-09-25T06:19:50.449Z,8
2018-09-25T06:20:50.322Z,8.03
2018-09-25T06:21:50.578Z,8.05
2018-09-25T06:22:50.624Z,8.08
2018-09-25T06:23:50.319Z,8.08
2018-09-25T06:24:50.601Z,8.06
2018-09-25T06:25:50.548Z,8.06
2018-09-25T06:26:50.538Z,8.05
2018-09-25T06:27:50.453Z,8.09
2018-09-25T06:28:50.529Z,8.05
2018-09-25T06:29:50.561Z,8.05
2018-09-25T06:30:50.261Z,8.16
2018-09-25T06:31:50.259Z,8.13
2018-09-25T06:32:49.985Z,8.15
2018-09-25T06:33:50.508Z,8.27
2018-09-25T06:34:50.364Z,8.3
2018-09-25T06:35:49.966Z,8.28
2018-09-25T06:36:50.232Z,8.3
2018-09-25T06:37:50.501Z,8.28
2018-09-25T06:38:50.220Z,8.28
2018-09-25T06:39:50.276Z,8.33
2018-09-25T06:40:50.261Z,8.34
2018-09-25T06:41:50.505Z,8.38
2018-09-25T06:42:50.259Z,8.42
2018-09-25T06:43:50.442Z,8.49
2018-09-25T06:44:50.206Z,8.45
2018-09-25T06:45:50.442Z,8.49
2018-09-25T06:46:50.169Z,8.56
2018-09-25T06:47:49.948Z,8.53
2018-09-25T06:48:50.156Z,8.6
2018-09-25T06:49:50.005Z,8.58
2018-09-25T06:50:50.392Z,8.66
2018-09-25T06:51:50.128Z,8.67
2018-09-25T06:52:50.415Z,8.91
2018-09-25T06:53:50.127Z,9.06
2018-09-25T06:54:50.384Z,9.54
2018-09-25T06:55:50.109Z,10.15
2018-09-25T06:56:49.854Z,10.9
2018-09-25T06:57:50.464Z,11.57
2018-09-25T06:58:50.099Z,12.42
2018-09-25T06:59:50.101Z,13.35
2018-09-25T07:00:50.149Z,14.18
2018-09-25T07:01:50.353Z,14.96
2018-09-25T07:02:50.352Z,15.67
2018-09-25T07:03:50.101Z,16.29
2018-09-25T07:04:50.396Z,16.69
2018-09-25T07:05:50.078Z,16.84
2018-09-25T07:06:50.077Z,16.97
2018-09-25T07:07:50.089Z,16.91
2018-09-25T07:08:50.082Z,17.09
2018-09-25T07:09:50.845Z,17.23
2018-09-25T07:10:50.308Z,17.19
2018-09-25T07:11:50.344Z,17.27
2018-09-25T07:12:50.086Z,17.02
2018-09-25T07:13:50.343Z,16.93
2018-09-25T07:14:50.086Z,16.91
2018-09-25T07:15:50.350Z,17.12
2018-09-25T07:16:50.343Z,17.3
2018-09-25T07:17:51.000Z,17.65
2018-09-25T07:18:50.066Z,18.13
2018-09-25T07:19:50.089Z,18.47
2018-09-25T07:20:50.095Z,18.86
2018-09-25T07:21:50.110Z,18.8
2018-09-25T07:22:50.681Z,18.99
2018-09-25T07:23:50.343Z,18.88
2018-09-25T07:24:50.828Z,19.04
2018-09-25T07:25:49.837Z,19.48
2018-09-25T07:26:50.122Z,19.79
2018-09-25T07:27:50.123Z,19.94
2018-09-25T07:28:50.117Z,20.03
2018-09-25T07:29:50.129Z,20.22
2018-09-25T07:30:50.407Z,20.63
2018-09-25T07:31:50.399Z,20.77
2018-09-25T07:32:50.228Z,20.96
2018-09-25T07:33:50.377Z,21.29
2018-09-25T07:34:50.129Z,21.52
2018-09-25T07:35:50.132Z,21.73
2018-09-25T07:36:49.876Z,21.5
2018-09-25T07:37:50.144Z,20.96
2018-09-25T07:38:50.149Z,20.88
2018-09-25T07:39:50.629Z,21.07
2018-09-25T07:40:50.416Z,21.06
2018-09-25T07:41:50.420Z,20.81
2018-09-25T07:42:50.189Z,20.55
2018-09-25T07:43:50.166Z,20.55
2018-09-25T07:44:50.428Z,20.55
2018-09-25T07:45:50.170Z,19.95
2018-09-25T07:46:50.433Z,19.55
2018-09-25T07:47:50.432Z,19.47
2018-09-25T07:48:50.186Z,19.62
2018-09-25T07:49:50.187Z,19.99
2018-09-25T07:50:50.185Z,20.28
2018-09-25T07:51:50.201Z,20.37
2018-09-25T07:52:50.190Z,20.59
2018-09-25T07:53:50.470Z,20.87
2018-09-25T07:54:50.495Z,20.87
2018-09-25T07:55:50.390Z,21.02
2018-09-25T07:56:50.237Z,21.07
2018-09-25T07:57:50.227Z,20.93
2018-09-25T07:58:50.475Z,20.74
2018-09-25T07:59:50.224Z,20.75
2018-09-25T08:00:50.543Z,20.62
2018-09-25T08:01:50.250Z,20.55
2018-09-25T08:02:50.497Z,20.56
2018-09-25T08:03:50.491Z,20.44
2018-09-25T08:04:50.489Z,20.66
2018-09-25T08:05:50.352Z,20.67
2018-09-25T08:06:50.501Z,20.92
2018-09-25T08:07:50.258Z,20.47
2018-09-25T08:08:50.507Z,20.06
2018-09-25T08:09:50.511Z,19.49
2018-09-25T08:10:50.588Z,18.92
2018-09-25T08:11:50.014Z,18.49
2018-09-25T08:12:50.312Z,17.86
2018-09-25T08:13:50.530Z,17.33
2018-09-25T08:14:50.299Z,16.72
2018-09-25T08:15:50.282Z,16.29
2018-09-25T08:16:50.557Z,15.83
2018-09-25T08:17:50.372Z,15.59
2018-09-25T08:18:50.552Z,15.44
2018-09-25T08:19:50.049Z,15.04
2018-09-25T08:20:50.362Z,14.78
2018-09-25T08:21:50.553Z,14.6
2018-09-25T08:22:50.560Z,14.35
2018-09-25T08:23:50.320Z,14.08
2018-09-25T08:24:50.564Z,14
2018-09-25T08:25:50.351Z,13.97
2018-09-25T08:26:50.557Z,13.96
2018-09-25T08:27:50.568Z,14
2018-09-25T08:28:50.575Z,14
2018-09-25T08:29:50.868Z,13.99
2018-09-25T08:30:50.311Z,13.92
2018-09-25T08:31:50.591Z,13.96
2018-09-25T08:32:50.300Z,13.93
2018-09-25T08:33:50.048Z,14
2018-09-25T08:34:50.348Z,13.96
2018-09-25T08:35:50.405Z,14.03
2018-09-25T08:36:50.566Z,13.92
2018-09-25T08:37:50.144Z,13.9
2018-09-25T08:38:50.992Z,14.08
2018-09-25T08:39:50.575Z,14.07
2018-09-25T08:40:50.608Z,13.96
2018-09-25T08:41:50.560Z,13.95
2018-09-25T08:42:50.564Z,14.03
2018-09-25T08:43:50.306Z,14
2018-09-25T08:44:50.324Z,13.87
2018-09-25T08:45:50.437Z,13.83
2018-09-25T08:46:50.547Z,13.86
2018-09-25T08:47:50.428Z,13.86
2018-09-25T08:48:50.293Z,13.75
2018-09-25T08:49:50.546Z,13.93
2018-09-25T08:50:50.944Z,13.99
2018-09-25T08:51:50.286Z,14.22
2018-09-25T08:52:50.623Z,14.32
2018-09-25T08:53:50.279Z,14.33
2018-09-25T08:54:50.536Z,14.5
2018-09-25T08:55:50.540Z,14.59
2018-09-25T08:56:50.281Z,14.59
2018-09-25T08:57:50.341Z,14.58
2018-09-25T08:58:50.022Z,14.6
2018-09-25T08:59:50.271Z,14.6
2018-09-25T09:00:50.704Z,14.55
2018-09-25T09:01:50.281Z,14.4
2018-09-25T09:02:50.281Z,14.36
2018-09-25T09:03:50.275Z,14.33
2018-09-25T09:04:50.016Z,14.3
2018-09-25T09:05:50.565Z,14.36
2018-09-25T09:06:50.258Z,14.37
2018-09-25T09:07:50.522Z,14.32
2018-09-25T09:08:50.523Z,14.37
2018-09-25T09:09:50.518Z,14.25
2018-09-25T09:10:50.309Z,14.1
2018-09-25T09:11:50.254Z,14.05
2018-09-25T09:12:50.518Z,14.08
2018-09-25T09:13:50.514Z,14.03
2018-09-25T09:14:50.252Z,14
2018-09-25T09:15:50.308Z,14
2018-09-25T09:16:50.502Z,13.95
2018-09-25T09:17:50.503Z,13.93
2018-09-25T09:18:49.989Z,13.93
2018-09-25T09:19:50.902Z,13.93
2018-09-25T09:20:50.131Z,13.93
2018-09-25T09:21:50.238Z,13.68
2018-09-25T09:22:50.492Z,13.59
2018-09-25T09:23:50.226Z,13.6
2018-09-25T09:24:50.486Z,13.67
2018-09-25T09:25:50.753Z,13.67
2018-09-25T09:26:50.220Z,13.83
2018-09-25T09:27:50.964Z,13.9
2018-09-25T09:28:50.475Z,13.89
2018-09-25T09:29:50.235Z,13.81
2018-09-25T09:30:50.525Z,13.81
2018-09-25T09:31:50.046Z,13.83
2018-09-25T09:32:50.473Z,13.95
2018-09-25T09:33:50.469Z,13.83
2018-09-25T09:34:50.220Z,13.71
2018-09-25T09:35:50.525Z,13.67
2018-09-25T09:36:50.209Z,13.52
2018-09-25T09:37:50.214Z,13.52
2018-09-25T09:38:50.474Z,13.41
2018-09-25T09:39:50.473Z,13.35
2018-09-25T09:40:50.256Z,13.31
2018-09-25T09:41:50.712Z,13.28
2018-09-25T09:42:50.213Z,13.3
2018-09-25T09:43:50.444Z,13.18
2018-09-25T09:44:50.447Z,13.23
2018-09-25T09:45:50.484Z,13.23
2018-09-25T09:46:50.181Z,13.22
2018-09-25T09:47:50.437Z,13.15
2018-09-25T09:48:50.430Z,13.19
2018-09-25T09:49:50.176Z,13.33
2018-09-25T09:50:50.222Z,13.44
2018-09-25T09:51:50.176Z,13.41
2018-09-25T09:52:50.564Z,13.42
2018-09-25T09:53:49.917Z,13.42
2018-09-25T09:54:50.422Z,13.28
2018-09-25T09:55:49.950Z,13.31
2018-09-25T09:56:50.171Z,13.3
2018-09-25T09:57:50.165Z,13.2
2018-09-25T09:58:50.412Z,13.2
2018-09-25T09:59:50.411Z,13.23
2018-09-25T10:00:50.147Z,13.22
2018-09-25T10:01:50.388Z,13.25
2018-09-25T10:02:50.410Z,13.23
2018-09-25T10:03:50.400Z,13.28
2018-09-25T10:04:50.173Z,13.28
2018-09-25T10:05:50.234Z,13.37
2018-09-25T10:06:50.640Z,13.42
2018-09-25T10:07:50.397Z,13.47
2018-09-25T10:08:50.125Z,13.42
2018-09-25T10:09:50.416Z,13.49
2018-09-25T10:10:50.374Z,13.54
2018-09-25T10:11:50.124Z,13.67
2018-09-25T10:12:50.376Z,13.65
2018-09-25T10:13:50.386Z,13.71
2018-09-25T10:14:50.369Z,13.75
2018-09-25T10:15:50.205Z,13.7
2018-09-25T10:16:50.358Z,13.71
2018-09-25T10:17:50.521Z,13.7
2018-09-25T10:18:50.181Z,13.7
2018-09-25T10:19:50.408Z,13.83
2018-09-25T10:20:50.439Z,13.81
2018-09-25T10:21:50.352Z,13.87
2018-09-25T10:22:50.348Z,13.95
2018-09-25T10:23:50.399Z,13.99
2018-09-25T10:24:50.335Z,14.04
2018-09-25T10:25:51.149Z,14.07
2018-09-25T10:26:50.358Z,14.15
2018-09-25T10:27:50.349Z,14.1
2018-09-25T10:28:49.825Z,14.1
2018-09-25T10:29:50.403Z,14.17
2018-09-25T10:30:50.073Z,14.15
2018-09-25T10:31:50.319Z,14.08
2018-09-25T10:32:50.409Z,14.14
2018-09-25T10:33:50.507Z,14.11
2018-09-25T10:34:50.055Z,14.18
2018-09-25T10:35:50.318Z,14.18
2018-09-25T10:36:50.319Z,14.33
2018-09-25T10:37:50.071Z,14.4
2018-09-25T10:38:50.048Z,14.45
2018-09-25T10:39:50.057Z,14.45
2018-09-25T10:40:50.379Z,14.66
2018-09-25T10:41:50.321Z,14.65
2018-09-25T10:42:50.305Z,14.78
2018-09-25T10:43:50.049Z,14.73
2018-09-25T10:44:50.041Z,14.73
2018-09-25T10:45:50.303Z,14.73
2018-09-25T10:46:50.054Z,14.65
2018-09-25T10:47:50.295Z,14.62
2018-09-25T10:48:50.034Z,14.55
2018-09-25T10:49:50.515Z,14.53
2018-09-25T10:50:50.037Z,14.48
2018-09-25T10:51:50.315Z,14.43
2018-09-25T10:52:50.081Z,14.47
2018-09-25T10:53:50.029Z,14.43
2018-09-25T10:54:50.036Z,14.4
2018-09-25T10:55:50.225Z,14.58
2018-09-25T10:56:50.019Z,14.47
2018-09-25T10:57:50.281Z,14.55
2018-09-25T10:58:49.775Z,14.58
2018-09-25T10:59:50.028Z,14.58
2018-09-25T11:00:50.272Z,14.55
2018-09-25T11:01:50.268Z,14.59
2018-09-25T11:02:50.232Z,14.62
2018-09-25T11:03:50.266Z,14.72
2018-09-25T11:04:50.260Z,14.86
2018-09-25T11:05:50.255Z,14.88
2018-09-25T11:06:50.261Z,14.91
2018-09-25T11:07:50.309Z,15.03
2018-09-25T11:08:50.269Z,14.88
2018-09-25T11:09:50.257Z,14.81
2018-09-25T11:10:50.272Z,14.73
2018-09-25T11:11:50.251Z,14.65
2018-09-25T11:12:50.312Z,14.62
2018-09-25T11:13:50.263Z,14.6
2018-09-25T11:14:50.259Z,14.66
2018-09-25T11:15:50.242Z,14.54
2018-09-25T11:16:50.245Z,14.51
2018-09-25T11:17:50.598Z,14.55
2018-09-25T11:18:49.986Z,14.63
2018-09-25T11:19:50.234Z,14.65
2018-09-25T11:20:50.228Z,14.79
2018-09-25T11:21:49.980Z,14.91
2018-09-25T11:22:49.980Z,14.94
2018-09-25T11:23:50.220Z,14.97
2018-09-25T11:24:50.244Z,14.94
2018-09-25T11:25:50.225Z,15
2018-09-25T11:26:50.304Z,14.91
2018-09-25T11:27:50.289Z,14.88
2018-09-25T11:28:49.967Z,14.96
2018-09-25T11:29:50.216Z,14.96
2018-09-25T11:30:49.950Z,15.07
2018-09-25T11:31:49.960Z,15.15
2018-09-25T11:32:50.233Z,15.02
2018-09-25T11:33:50.215Z,15.15
2018-09-25T11:34:50.211Z,15.15
2018-09-25T11:35:49.951Z,15.11
2018-09-25T11:36:50.027Z,15.24
2018-09-25T11:37:50.223Z,15.24
2018-09-25T11:38:50.210Z,15.18
2018-09-25T11:39:50.219Z,15.18
2018-09-25T11:40:49.987Z,15.15
2018-09-25T11:41:50.253Z,15.18
2018-09-25T11:42:50.024Z,15.18
2018-09-25T11:43:50.026Z,15.19
2018-09-25T11:44:50.197Z,15.19
2018-09-25T11:45:50.029Z,15.22
2018-09-25T11:46:50.601Z,15.24
2018-09-25T11:47:50.195Z,15.15
2018-09-25T11:48:50.188Z,15.15
2018-09-25T11:49:50.301Z,15.09
2018-09-25T11:50:50.195Z,15.18
2018-09-25T11:51:50.034Z,15.17
2018-09-25T11:52:50.101Z,15.19
2018-09-25T11:53:50.186Z,15.31
2018-09-25T11:54:50.189Z,15.4
2018-09-25T11:55:50.182Z,15.39
2018-09-25T11:56:50.222Z,15.46
2018-09-25T11:57:50.027Z,15.43
2018-09-25T11:58:49.927Z,15.49
2018-09-25T11:59:50.171Z,15.39
2018-09-25T12:00:50.143Z,15.31
2018-09-25T12:01:49.952Z,15.24
2018-09-25T12:02:49.626Z,15.28
2018-09-25T12:03:49.892Z,15.27
2018-09-25T12:04:50.138Z,15.35
2018-09-25T12:05:49.899Z,15.24
2018-09-25T12:06:49.953Z,15.24
2018-09-25T12:07:50.171Z,15.18
2018-09-25T12:08:50.215Z,15.14
2018-09-25T12:09:50.152Z,15.04
2018-09-25T12:10:49.892Z,15.15
2018-09-25T12:11:50.150Z,15.04
2018-09-25T12:12:49.917Z,15.03
2018-09-25T12:13:50.444Z,15.04
2018-09-25T12:14:49.884Z,15.03
2018-09-25T12:15:49.894Z,15.11
2018-09-25T12:16:50.006Z,15.15
2018-09-25T12:17:49.649Z,15.28
2018-09-25T12:18:49.907Z,15.33
2018-09-25T12:19:50.320Z,15.24
2018-09-25T12:20:49.872Z,15.27
2018-09-25T12:21:49.732Z,15.21
2018-09-25T12:22:49.875Z,15.21
2018-09-25T12:23:49.871Z,15.28
2018-09-25T12:24:49.892Z,15.31
2018-09-25T12:25:50.141Z,15.27
2018-09-25T12:26:50.175Z,15.37
2018-09-25T12:27:49.891Z,15.55
2018-09-25T12:28:49.863Z,15.64
2018-09-25T12:29:49.862Z,15.68
2018-09-25T12:30:49.869Z,15.75
2018-09-25T12:31:50.116Z,15.73
2018-09-25T12:32:49.935Z,15.83
2018-09-25T12:33:50.013Z,15.84
2018-09-25T12:34:50.113Z,15.9
2018-09-25T12:35:50.107Z,15.9
2018-09-25T12:36:49.953Z,15.88
2018-09-25T12:37:49.612Z,15.82
2018-09-25T12:38:49.845Z,15.86
2018-09-25T12:39:50.099Z,15.86
2018-09-25T12:40:49.909Z,15.8
2018-09-25T12:41:50.098Z,15.91
2018-09-25T12:42:50.102Z,15.98
2018-09-25T12:43:49.649Z,16.05
2018-09-25T12:44:50.099Z,16.09
2018-09-25T12:45:50.152Z,16.02
2018-09-25T12:46:49.904Z,16.09
2018-09-25T12:47:49.911Z,16.17
2018-09-25T12:48:50.087Z,16.13
2018-09-25T12:49:49.884Z,16.09
2018-09-25T12:50:50.107Z,15.94
2018-09-25T12:51:49.930Z,15.94
2018-09-25T12:52:49.833Z,15.97
2018-09-25T12:53:49.820Z,15.98
2018-09-25T12:54:49.849Z,15.92
2018-09-25T12:55:49.573Z,16.01
2018-09-25T12:56:50.134Z,16.01
2018-09-25T12:57:50.094Z,16.09
2018-09-25T12:58:50.097Z,16.08
2018-09-25T12:59:49.826Z,16.1
2018-09-25T13:00:49.568Z,16.13
2018-09-25T13:01:49.622Z,16.13
2018-09-25T13:02:50.090Z,16.1
2018-09-25T13:03:50.173Z,16.05
2018-09-25T13:04:50.086Z,16.09
2018-09-25T13:05:49.559Z,16.09
2018-09-25T13:06:49.916Z,15.97
2018-09-25T13:07:49.825Z,15.9
2018-09-25T13:08:50.072Z,15.76
2018-09-25T13:09:50.330Z,15.65
2018-09-25T13:10:49.816Z,15.67